Time;durP1;ratioP1;P1;durP2;ratioP2;P2;SDS_P1;SDS_P2;PMS_P1;PMS_P2;Temp;Humidity;BMP_temperature;BMP_pressure;BME280_temperature;BME280_humidity;BME280_pressure;Samples;Min_cycle;Max_cycle;Signal;HPM_P1;HPM_P2
2023/10/09 00:02:12;;;;;;;15.40;5.93;;;;;;;9.71;100.00;94707.69;5029610;28;20083;-63
2023/10/09 00:04:41;;;;;;;16.80;5.80;;;;;;;9.62;100.00;94706.50;5029603;28;20052;-63
2023/10/09 00:07:10;;;;;;;20.23;6.78;;;;;;;9.63;100.00;94705.34;5027871;28;20065;-63
2023/10/09 00:09:46;;;;;;;14.95;5.88;;;;;;;9.57;100.00;94705.72;5029652;28;20393;-64
2023/10/09 00:12:22;;;;;;;16.27;5.80;;;;;;;9.52;100.00;94700.66;5028923;28;20049;-63
2023/10/09 00:14:50;;;;;;;18.37;5.97;;;;;;;9.54;100.00;94703.78;5029811;28;20052;-63
2023/10/09 00:17:17;;;;;;;16.52;5.70;;;;;;;9.52;100.00;94697.13;5028831;28;20421;-63
2023/10/09 00:19:51;;;;;;;19.38;6.38;;;;;;;9.51;100.00;94693.59;5029694;28;20041;-63
2023/10/09 00:22:28;;;;;;;14.25;5.75;;;;;;;9.50;100.00;94697.50;5028687;28;20553;-63
2023/10/09 00:25:12;;;;;;;15.60;6.40;;;;;;;9.46;100.00;94687.72;5028339;28;20102;-63
2023/10/09 00:27:45;;;;;;;16.47;5.67;;;;;;;9.45;100.00;94686.91;5016571;28;21660;-63
2023/10/09 00:30:18;;;;;;;20.80;6.10;;;;;;;9.40;100.00;94692.81;5028691;28;20490;-63
2023/10/09 00:33:05;;;;;;;45.63;21.92;;;;;;;9.42;100.00;94686.91;5029598;28;20037;-63
2023/10/09 00:35:41;;;;;;;24.38;10.82;;;;;;;9.40;100.00;94685.34;5027996;28;20115;-63
2023/10/09 00:40:57;;;;;;;24.53;11.70;;;;;;;9.38;100.00;94692.41;5029049;28;20042;-63
2023/10/09 00:43:29;;;;;;;16.30;7.10;;;;;;;9.29;100.00;94686.50;5028668;28;20616;-63
2023/10/09 00:49:02;;;;;;;16.00;6.18;;;;;;;9.22;100.00;94681.03;5015448;28;20049;-63
2023/10/09 00:51:36;;;;;;;14.45;5.65;;;;;;;9.17;100.00;94668.47;5028272;28;20509;-63
2023/10/09 00:54:07;;;;;;;21.40;6.10;;;;;;;9.15;100.00;94673.56;5028622;28;20059;-63
2023/10/09 00:56:39;;;;;;;17.15;5.90;;;;;;;9.11;100.00;94673.53;5028939;28;20054;-63
2023/10/09 00:59:14;;;;;;;19.38;6.25;;;;;;;9.09;100.00;94666.91;5028524;28;20044;-63
2023/10/09 01:01:50;;;;;;;18.70;5.90;;;;;;;9.06;100.00;94670.44;5017096;28;20044;-63
2023/10/09 01:04:17;;;;;;;20.15;6.72;;;;;;;9.04;100.00;94665.34;5028135;28;20045;-63
2023/10/09 01:07:04;;;;;;;29.67;12.33;;;;;;;9.03;100.00;94661.00;5028838;28;20037;-63
2023/10/09 01:09:37;;;;;;;19.38;8.15;;;;;;;9.05;100.00;94664.16;5027793;28;20060;-64
2023/10/09 01:12:04;;;;;;;16.63;6.10;;;;;;;8.99;100.00;94655.56;5028402;28;20056;-63
2023/10/09 01:14:38;;;;;;;14.93;5.30;;;;;;;9.00;100.00;94657.09;5028394;28;20037;-63
2023/10/09 01:17:08;;;;;;;16.05;5.93;;;;;;;9.00;100.00;94659.06;5027984;28;20038;-63
2023/10/09 01:19:35;;;;;;;18.77;6.20;;;;;;;8.97;100.00;94654.34;5028778;28;20033;-63
2023/10/09 01:22:12;;;;;;;14.30;5.60;;;;;;;8.97;100.00;94649.69;5027567;28;20045;-63
2023/10/09 01:24:40;;;;;;;19.90;5.78;;;;;;;8.96;100.00;94647.31;5028653;28;20043;-63
2023/10/09 01:27:16;;;;;;;13.90;5.90;;;;;;;8.94;100.00;94649.66;5027577;28;20056;-63
2023/10/09 01:29:44;;;;;;;14.00;5.60;;;;;;;8.93;100.00;94654.38;5028628;28;20114;-63
2023/10/09 01:32:20;;;;;;;13.80;5.37;;;;;;;8.93;100.00;94653.56;5027791;28;20401;-63
2023/10/09 01:34:49;;;;;;;14.63;5.63;;;;;;;8.91;100.00;94648.47;5028338;28;20088;-63
2023/10/09 01:37:19;;;;;;;17.20;5.47;;;;;;;8.87;100.00;94644.16;5027564;28;20041;-63
2023/10/09 01:39:51;;;;;;;15.40;5.30;;;;;;;8.84;100.00;94645.72;5027656;28;20103;-63
2023/10/09 01:42:40;;;;;;;16.67;6.10;;;;;;;8.82;100.00;94648.06;5027704;28;20049;-63
2023/10/09 01:45:11;;;;;;;70.00;29.97;;;;;;;8.81;100.00;94646.47;5025949;28;20048;-63
2023/10/09 01:47:38;;;;;;;28.13;12.02;;;;;;;8.74;100.00;94641.78;5028379;28;20106;-63
2023/10/09 01:50:09;;;;;;;19.63;6.40;;;;;;;8.71;100.00;94647.22;5027498;28;20071;-63
2023/10/09 01:52:37;;;;;;;15.57;5.88;;;;;;;8.69;100.00;94646.84;5031595;28;20327;-63
2023/10/09 01:55:07;;;;;;;17.77;6.20;;;;;;;8.67;100.00;94640.97;5031436;28;20037;-63
2023/10/09 01:57:34;;;;;;;15.20;5.57;;;;;;;8.63;100.00;94635.47;5031824;28;20038;-63
2023/10/09 02:00:02;;;;;;;16.73;5.75;;;;;;;8.63;100.00;94637.44;5018912;28;20037;-64
2023/10/09 02:02:35;;;;;;;16.25;6.05;;;;;;;8.59;100.00;94615.53;5018434;28;20038;-63
2023/10/09 02:07:51;;;;;;;14.25;6.07;;;;;;;8.51;100.00;94635.81;5031841;28;20064;-63
2023/10/09 02:13:06;;;;;;;15.27;5.60;;;;;;;8.43;100.00;94631.47;5031924;28;20046;-63
2023/10/09 02:23:39;;;;;;;18.73;5.93;;;;;;;8.35;100.00;94617.75;5030696;28;20885;-63
2023/10/09 02:26:07;;;;;;;18.15;5.75;;;;;;;8.35;100.00;94631.44;5031277;28;20045;-63
2023/10/09 02:28:35;;;;;;;15.55;5.65;;;;;;;8.39;100.00;94624.03;5031510;28;20106;-63
2023/10/09 02:31:12;;;;;;;15.02;5.82;;;;;;;8.39;100.00;94629.50;5031037;28;20118;-63
2023/10/09 02:33:39;;;;;;;16.85;6.00;;;;;;;8.37;100.00;94623.63;5031309;28;20045;-63
2023/10/09 02:36:06;;;;;;;14.73;5.53;;;;;;;8.31;100.00;94616.97;5030904;28;20041;-63
2023/10/09 02:38:36;;;;;;;14.82;5.55;;;;;;;8.29;100.00;94616.56;5030940;28;20041;-63
2023/10/09 02:43:40;;;;;;;14.43;6.20;;;;;;;8.25;100.00;94621.22;5030972;28;20048;-63
2023/10/09 02:46:29;;;;;;;13.85;5.40;;;;;;;8.27;100.00;94620.81;5030658;28;20041;-63
2023/10/09 02:49:03;;;;;;;18.17;5.70;;;;;;;8.27;100.00;94612.63;5021281;28;20053;-63
2023/10/09 02:51:33;;;;;;;17.17;5.68;;;;;;;8.25;100.00;94604.03;5030352;28;20706;-65
2023/10/09 02:57:05;;;;;;;15.88;5.60;;;;;;;8.26;100.00;94608.34;5027001;28;20552;-63
2023/10/09 02:59:38;;;;;;;13.10;5.78;;;;;;;8.24;100.00;94603.25;5029778;28;20571;-63
2023/10/09 03:02:05;;;;;;;14.40;5.80;;;;;;;8.22;100.00;94605.56;5029848;28;20037;-63
2023/10/09 03:04:32;;;;;;;16.85;6.05;;;;;;;8.22;100.00;94596.59;5030520;28;20048;-64
2023/10/09 03:07:04;;;;;;;15.75;5.40;;;;;;;8.17;100.00;94595.81;5030929;28;20092;-64
2023/10/09 03:09:31;;;;;;;13.32;5.38;;;;;;;8.16;100.00;94598.91;5029817;28;20159;-63
2023/10/09 03:12:02;;;;;;;17.67;5.57;;;;;;;8.13;100.00;94594.19;5030823;28;20047;-63
2023/10/09 03:14:31;;;;;;;13.87;5.33;;;;;;;8.11;100.00;94588.31;5029654;28;20646;-63
2023/10/09 03:16:59;;;;;;;13.13;4.95;;;;;;;8.06;100.00;94585.97;5030623;28;20053;-64
2023/10/09 03:19:28;;;;;;;15.95;5.25;;;;;;;8.04;100.00;94588.31;5029711;28;20545;-63
2023/10/09 03:21:57;;;;;;;14.45;5.70;;;;;;;8.03;100.00;94587.53;5030197;28;20770;-63
2023/10/09 03:24:27;;;;;;;13.52;5.55;;;;;;;8.05;100.00;94587.94;5030067;28;20037;-63
2023/10/09 03:26:55;;;;;;;14.63;5.17;;;;;;;8.05;100.00;94582.47;5030036;28;20144;-63
2023/10/09 03:29:23;;;;;;;12.13;4.93;;;;;;;8.03;100.00;94589.47;5030161;28;20072;-63
2023/10/09 03:31:51;;;;;;;15.52;5.07;;;;;;;8.03;100.00;94592.19;5030059;28;20052;-63
2023/10/09 03:34:18;;;;;;;14.18;4.80;;;;;;;8.04;100.00;94580.88;5029743;28;20041;-64
2023/10/09 03:36:51;;;;;;;13.63;5.38;;;;;;;8.06;100.00;94588.72;5029806;28;20375;-64
2023/10/09 03:39:33;;;;;;;15.47;5.00;;;;;;;8.09;100.00;94587.94;5029572;28;20049;-63
2023/10/09 03:42:04;;;;;;;13.38;5.60;;;;;;;8.11;100.00;94582.84;5029890;28;20044;-62
2023/10/09 03:44:34;;;;;;;17.50;6.10;;;;;;;8.11;100.00;94578.19;5029658;28;20045;-63
2023/10/09 03:47:01;;;;;;;12.50;5.25;;;;;;;8.13;100.00;94578.59;5029660;28;20525;-63
2023/10/09 03:49:29;;;;;;;15.45;5.53;;;;;;;8.16;100.00;94583.28;5030036;28;20494;-63
2023/10/09 03:51:56;;;;;;;14.60;5.27;;;;;;;8.17;100.00;94582.13;5029944;28;20522;-63
2023/10/09 03:54:24;;;;;;;14.98;4.53;;;;;;;8.12;100.00;94587.94;5011686;28;20075;-63
2023/10/09 03:56:51;;;;;;;13.35;5.22;;;;;;;8.11;100.00;94578.19;5030106;28;20053;-63
2023/10/09 03:59:21;;;;;;;13.20;5.47;;;;;;;8.14;100.00;94579.38;5027952;28;20452;-63
2023/10/09 04:01:50;;;;;;;12.70;6.15;;;;;;;8.13;100.00;94578.59;5028898;28;20050;-63
2023/10/09 04:04:18;;;;;;;12.30;5.40;;;;;;;8.17;100.00;94582.13;5029173;28;20084;-63
2023/10/09 04:06:46;;;;;;;15.93;5.90;;;;;;;8.20;100.00;94583.31;5029810;28;20405;-64
2023/10/09 04:14:49;;;;;;;14.75;5.30;;;;;;;8.21;100.00;94571.22;5027965;28;20651;-63
2023/10/09 04:17:34;;;;;;;15.13;5.80;;;;;;;8.17;100.00;94578.63;5028946;28;20049;-64
2023/10/09 04:20:47;;;;;;;16.58;5.80;;;;;;;8.09;100.00;94566.88;5027852;28;20080;-63
2023/10/09 04:23:05;;;;;;;17.23;5.80;;;;;;;8.15;100.00;94578.22;5027906;28;20042;-63
2023/10/09 04:25:50;;;;;;;15.23;5.75;;;;;;;8.15;100.00;94572.75;5028727;28;20534;-63
2023/10/09 04:28:19;;;;;;;14.02;5.25;;;;;;;8.16;100.00;94579.78;5028714;28;20057;-63
2023/10/09 04:30:53;;;;;;;17.30;6.20;;;;;;;8.16;100.00;94572.34;5029428;28;20051;-63
2023/10/09 04:36:22;;;;;;;14.40;5.72;;;;;;;8.11;100.00;94574.66;5028931;28;20397;-63
2023/10/09 04:41:51;;;;;;;16.52;5.93;;;;;;;8.19;100.00;94571.59;5028186;28;20041;-63
2023/10/09 04:44:22;;;;;;;16.23;5.77;;;;;;;8.19;100.00;94573.56;5028537;28;20513;-64
2023/10/09 04:50:36;;;;;;;15.88;5.97;;;;;;;8.21;100.00;94573.94;5027746;28;20320;-63
2023/10/09 05:02:58;;;;;;;16.83;5.45;;;;;;;8.06;100.00;94572.31;5028437;28;20052;-64
2023/10/09 05:08:22;;;;;;;13.68;5.35;;;;;;;8.00;100.00;94575.38;5028251;28;20433;-64
2023/10/09 05:16:18;;;;;;;18.58;5.68;;;;;;;7.96;100.00;94565.63;5028107;28;20059;-64
2023/10/09 05:18:56;;;;;;;15.80;5.80;;;;;;;7.92;100.00;94567.53;5028276;28;20051;-64
2023/10/09 05:21:36;;;;;;;13.05;5.28;;;;;;;7.89;100.00;94571.06;5028014;28;20045;-64
2023/10/09 05:26:51;;;;;;;14.80;5.18;;;;;;;7.86;100.00;94575.31;5027953;28;20094;-63
2023/10/09 05:37:33;;;;;;;15.67;5.97;;;;;;;7.90;100.00;94578.84;5026284;28;21747;-64
2023/10/09 05:40:22;;;;;;;13.68;5.60;;;;;;;7.86;100.00;94583.50;5027564;28;20051;-64
2023/10/09 05:42:59;;;;;;;16.02;5.70;;;;;;;7.91;100.00;94587.84;5028116;28;20041;-65
2023/10/09 05:46:15;;;;;;;15.35;5.60;;;;;;;7.94;100.00;94587.84;5027273;28;20048;-65
2023/10/09 05:48:48;;;;;;;16.08;5.55;;;;;;;8.08;100.00;94584.41;5019364;28;20183;-64
2023/10/09 05:51:12;;;;;;;13.47;5.10;;;;;;;8.17;100.00;94584.88;5027767;28;20103;-64
2023/10/09 06:04:33;;;;;;;13.60;4.97;;;;;;;8.96;100.00;94589.84;5027581;28;20050;-64
2023/10/09 06:07:11;;;;;;;14.57;4.65;;;;;;;9.10;100.00;94587.13;5027540;28;20052;-63
2023/10/09 06:09:52;;;;;;;10.60;4.90;;;;;;;9.28;100.00;94591.84;5016866;28;20048;-63
2023/10/09 06:17:59;;;;;;;13.70;5.00;;;;;;;9.15;100.00;94600.41;4994017;28;20707;-63
2023/10/09 06:23:23;;;;;;;13.20;5.38;;;;;;;9.80;100.00;94600.44;5027191;28;20643;-62
2023/10/09 06:25:53;;;;;;;16.63;5.50;;;;;;;10.09;100.00;94611.34;5027977;28;20033;-62
2023/10/09 06:28:32;;;;;;;14.23;5.95;;;;;;;9.97;100.00;94609.78;5027213;28;21939;-63
2023/10/09 06:31:27;;;;;;;15.07;5.30;;;;;;;10.32;100.00;94606.22;5026896;28;20045;-63
2023/10/09 06:34:15;;;;;;;13.18;4.63;;;;;;;10.45;100.00;94603.81;5026508;28;21991;-64
2023/10/09 06:36:52;;;;;;;17.15;5.88;;;;;;;10.74;100.00;94609.94;5026834;28;20605;-63
2023/10/09 06:42:30;;;;;;;13.30;5.30;;;;;;;11.40;100.00;94616.63;5020174;28;20053;-64
2023/10/09 06:45:14;;;;;;;13.80;5.50;;;;;;;11.74;100.00;94613.22;5031354;28;20347;-64
2023/10/09 06:51:03;;;;;;;14.85;5.15;;;;;;;12.13;100.00;94614.84;4976369;28;20900;-64
2023/10/09 06:58:58;;;;;;;14.03;5.50;;;;;;;12.83;100.00;94605.44;5031000;28;20041;-64
2023/10/09 07:01:44;;;;;;;15.23;5.07;;;;;;;13.49;100.00;94610.41;5030525;28;20046;-64
2023/10/09 07:04:45;;;;;;;10.85;4.78;;;;;;;13.70;100.00;94606.56;5030374;28;20042;-63
2023/10/09 07:07:09;;;;;;;13.88;5.18;;;;;;;13.69;100.00;94606.97;5030462;28;20117;-64
2023/10/09 07:09:42;;;;;;;13.90;5.68;;;;;;;14.24;100.00;94604.84;5031130;28;20063;-64
2023/10/09 07:12:14;;;;;;;12.90;4.70;;;;;;;15.04;100.00;94610.41;5030246;28;20441;-64
2023/10/09 07:24:58;;;;;;;14.90;4.37;;;;;;;23.46;67.12;94604.50;5030724;28;20053;-62
2023/10/09 07:27:48;;;;;;;17.55;4.30;;;;;;;24.12;58.70;94598.41;5016969;28;20867;-62
2023/10/09 07:38:35;;;;;;;16.13;4.70;;;;;;;22.16;70.34;94613.13;5029724;28;20041;-62
2023/10/09 07:43:39;;;;;;;19.13;6.78;;;;;;;17.95;95.39;94620.91;5030250;28;20046;-62
2023/10/09 07:48:54;;;;;;;19.00;8.25;;;;;;;23.43;71.29;94623.03;5030384;28;20049;-62
2023/10/09 07:51:30;;;;;;;21.17;8.37;;;;;;;22.77;71.50;94623.31;5029749;28;20045;-62
2023/10/09 07:54:08;;;;;;;22.38;7.65;;;;;;;24.02;66.30;94615.84;5030205;28;20045;-62
2023/10/09 07:56:41;;;;;;;18.42;7.20;;;;;;;24.82;61.57;94613.63;5029588;28;20806;-62
2023/10/09 07:59:11;;;;;;;15.88;7.13;;;;;;;25.06;61.01;94609.81;5029720;28;20151;-62
2023/10/09 08:01:52;;;;;;;17.85;8.05;;;;;;;24.62;58.59;94605.22;5030052;28;20048;-62
2023/10/09 08:04:37;;;;;;;17.90;7.43;;;;;;;24.59;59.59;94612.59;5029395;28;20477;-62
2023/10/09 08:07:19;;;;;;;19.10;7.55;;;;;;;23.29;63.63;94618.22;5029338;28;20057;-62
2023/10/09 08:15:20;;;;;;;21.65;8.68;;;;;;;22.57;69.79;94621.91;5029134;28;20438;-62
2023/10/09 08:18:19;;;;;;;20.67;7.50;;;;;;;22.91;69.17;94609.34;5029720;28;20055;-62
2023/10/09 08:23:33;;;;;;;16.27;6.50;;;;;;;23.92;66.54;94607.56;5028846;28;20041;-62
2023/10/09 08:26:12;;;;;;;18.23;6.78;;;;;;;21.61;78.22;94608.56;5029627;28;20401;-61
2023/10/09 08:28:42;;;;;;;16.23;6.43;;;;;;;22.49;78.32;94615.88;5029380;28;20153;-61
2023/10/09 08:33:58;;;;;;;20.80;6.03;;;;;;;22.52;76.86;94609.34;5018216;28;20038;-61
2023/10/09 08:36:35;;;;;;;19.70;5.75;;;;;;;23.05;75.40;94616.25;5028080;28;20511;-64
2023/10/09 08:39:25;;;;;;;14.00;5.75;;;;;;;23.98;72.08;94604.06;5028649;28;20057;-64
2023/10/09 08:41:58;;;;;;;17.35;5.65;;;;;;;24.48;69.24;94606.81;5029195;28;20049;-64
2023/10/09 08:44:31;;;;;;;14.03;5.47;;;;;;;23.53;70.68;94606.91;5027986;28;21600;-62
2023/10/09 08:46:59;;;;;;;16.85;3.97;;;;;;;23.78;58.95;94594.34;5029202;28;20045;-62
2023/10/09 08:49:28;;;;;;;12.90;3.90;;;;;;;24.63;57.06;94598.34;5028328;28;20041;-62
2023/10/09 08:51:56;;;;;;;14.35;4.07;;;;;;;24.98;56.27;94594.66;5028561;28;20520;-62
2023/10/09 08:54:23;;;;;;;15.77;3.45;;;;;;;25.06;47.23;94598.59;5028586;28;20071;-62
2023/10/09 08:56:50;;;;;;;19.73;2.90;;;;;;;25.26;44.66;94589.38;5029392;28;20050;-62
2023/10/09 08:59:18;;;;;;;13.20;2.70;;;;;;;24.98;43.88;94589.06;5028285;28;20037;-62
2023/10/09 09:01:52;;;;;;;11.30;2.40;;;;;;;24.76;43.23;94593.16;5028705;28;20065;-62
2023/10/09 09:04:39;;;;;;;11.23;2.55;;;;;;;24.67;43.35;94596.09;5028701;28;20045;-62
2023/10/09 09:07:24;;;;;;;16.35;3.00;;;;;;;25.02;42.44;94601.59;5028290;28;20053;-62
2023/10/09 09:10:04;;;;;;;16.33;2.40;;;;;;;24.93;41.55;94601.75;5028630;28;20037;-62
2023/10/09 09:12:37;;;;;;;15.88;2.80;;;;;;;24.24;43.21;94604.19;5027742;28;20899;-62
2023/10/09 09:15:18;;;;;;;19.75;2.85;;;;;;;23.17;44.71;94608.06;5028696;28;20052;-61
2023/10/09 09:17:46;;;;;;;11.98;2.60;;;;;;;24.04;42.66;94599.31;5027902;28;20079;-61
2023/10/09 09:20:30;;;;;;;26.98;3.50;;;;;;;23.44;44.37;94598.59;5027676;28;20102;-62
2023/10/09 09:22:56;;;;;;;16.40;3.00;;;;;;;23.39;46.40;94607.69;5028621;28;20071;-62
2023/10/09 09:25:25;;;;;;;15.57;2.28;;;;;;;23.60;44.08;94603.69;5027980;28;20045;-62
2023/10/09 09:27:55;;;;;;;14.63;3.17;;;;;;;23.45;43.46;94603.72;5028608;28;20510;-62
2023/10/09 09:30:24;;;;;;;19.23;2.80;;;;;;;23.91;42.71;94599.66;5025153;28;20045;-62
2023/10/09 09:35:36;;;;;;;12.83;2.50;;;;;;;24.03;42.34;94598.56;5027759;28;20402;-62
2023/10/09 09:38:06;;;;;;;12.50;2.50;;;;;;;23.76;43.68;94605.22;5027872;28;20055;-62
2023/10/09 09:40:41;;;;;;;21.77;3.33;;;;;;;22.83;45.68;94605.38;5028453;28;20048;-61
2023/10/09 09:43:21;;;;;;;18.50;3.40;;;;;;;23.29;47.12;94599.38;5027649;28;20068;-62
2023/10/09 09:45:52;;;;;;;14.07;2.67;;;;;;;23.22;44.58;94610.19;5028597;28;20041;-62
2023/10/09 09:48:19;;;;;;;13.43;2.93;;;;;;;23.77;45.33;94606.81;5027981;28;20050;-62
2023/10/09 09:50:47;;;;;;;10.65;2.50;;;;;;;24.07;42.09;94606.75;5028517;28;20053;-62
2023/10/09 09:53:18;;;;;;;14.18;2.30;;;;;;;24.64;41.69;94599.91;5015021;28;20060;-62
2023/10/09 09:55:57;;;;;;;14.82;2.47;;;;;;;24.59;42.15;94612.59;5028320;28;20056;-62
2023/10/09 09:58:32;;;;;;;17.67;3.05;;;;;;;24.39;42.29;94613.34;5027367;28;20343;-62
2023/10/09 10:01:16;;;;;;;16.67;3.93;;;;;;;24.21;42.89;94611.56;5026814;28;20052;-62
2023/10/09 10:03:52;;;;;;;20.83;3.28;;;;;;;23.77;42.23;94604.00;5027254;28;20214;-62
2023/10/09 10:06:21;;;;;;;21.08;2.80;;;;;;;24.46;41.25;94601.69;5027956;28;20409;-62
2023/10/09 10:08:51;;;;;;;17.95;2.92;;;;;;;23.84;43.00;94603.59;4995559;28;20046;-62
2023/10/09 10:11:44;;;;;;;15.93;3.65;;;;;;;24.50;42.22;94612.72;5025458;28;20514;-62
2023/10/09 10:14:48;;;;;;;17.83;2.80;;;;;;;24.05;41.78;94612.84;5031096;28;20103;-62
2023/10/09 10:17:16;;;;;;;19.02;2.83;;;;;;;23.79;42.72;94609.91;5028183;28;20056;-62
2023/10/09 10:20:01;;;;;;;18.55;2.60;;;;;;;24.74;42.09;94618.13;5031753;28;20045;-62
2023/10/09 10:22:29;;;;;;;13.25;2.60;;;;;;;24.38;40.90;94611.00;5030756;28;20063;-62
2023/10/09 10:24:57;;;;;;;15.35;2.33;;;;;;;24.54;41.83;94612.53;5031803;28;20492;-62
2023/10/09 10:27:28;;;;;;;17.27;2.87;;;;;;;25.28;39.53;94614.94;5030925;28;20397;-62
2023/10/09 10:30:11;;;;;;;15.98;2.50;;;;;;;26.25;38.64;94614.44;5031130;28;20405;-62
2023/10/09 10:35:45;;;;;;;17.05;3.00;;;;;;;26.30;38.04;94611.69;5030394;28;20807;-63
2023/10/09 10:38:36;;;;;;;16.77;2.80;;;;;;;26.45;37.72;94616.34;5030801;28;20399;-63
2023/10/09 10:41:16;;;;;;;15.63;2.70;;;;;;;27.07;36.41;94623.06;5031126;28;20102;-62
2023/10/09 10:46:37;;;;;;;13.02;2.58;;;;;;;26.63;36.24;94615.97;5030748;28;20053;-62
2023/10/09 10:49:36;;;;;;;22.40;2.72;;;;;;;24.71;38.86;94616.31;5030723;28;20104;-64
2023/10/09 10:52:18;;;;;;;21.02;2.97;;;;;;;25.07;38.84;94617.75;5031391;28;20069;-62
2023/10/09 10:57:37;;;;;;;16.23;2.60;;;;;;;25.27;38.55;94607.75;5030915;28;20370;-62
2023/10/09 11:01:03;;;;;;;15.82;2.72;;;;;;;24.08;39.63;94611.88;5030863;28;20049;-63
2023/10/09 11:03:29;;;;;;;15.30;2.40;;;;;;;24.42;39.83;94603.91;5030322;28;20041;-61
2023/10/09 11:06:13;;;;;;;18.00;2.90;;;;;;;24.49;40.24;94611.16;5031060;28;20490;-62
2023/10/09 11:08:56;;;;;;;12.27;2.60;;;;;;;24.76;39.70;94610.00;5030003;28;20465;-62
2023/10/09 11:11:30;;;;;;;17.52;2.45;;;;;;;24.46;41.81;94612.13;5030549;28;20041;-62
2023/10/09 11:14:23;;;;;;;16.73;2.72;;;;;;;24.28;40.63;94611.13;5030913;28;20044;-64
2023/10/09 11:16:51;;;;;;;12.20;2.50;;;;;;;24.20;40.60;94600.81;5029874;28;20851;-64
2023/10/09 11:19:28;;;;;;;12.07;2.25;;;;;;;24.23;41.59;94597.03;5030178;28;20437;-63
2023/10/09 11:24:36;;;;;;;12.95;2.40;;;;;;;25.02;41.92;94587.56;5029475;28;20643;-64
2023/10/09 11:27:06;;;;;;;15.13;2.60;;;;;;;24.80;40.22;94590.13;5030172;28;20063;-64
2023/10/09 11:32:19;;;;;;;12.57;2.20;;;;;;;24.83;40.53;94592.72;5029894;28;20045;-63
2023/10/09 11:34:53;;;;;;;18.93;2.70;;;;;;;25.22;39.50;94586.00;5030744;28;20099;-63
2023/10/09 11:37:38;;;;;;;16.95;2.90;;;;;;;24.65;39.72;94593.00;5029137;28;20048;-63
2023/10/09 11:40:23;;;;;;;15.13;2.58;;;;;;;24.65;39.75;94587.38;5029863;28;20046;-63
2023/10/09 11:42:50;;;;;;;14.70;2.40;;;;;;;25.22;38.66;94581.16;5030248;28;20092;-64
2023/10/09 11:45:28;;;;;;;15.55;2.63;;;;;;;25.28;38.21;94584.78;5029834;28;20410;-64
2023/10/09 11:48:20;;;;;;;16.07;2.40;;;;;;;25.31;38.46;94578.19;5030135;28;20060;-64
2023/10/09 11:53:45;;;;;;;16.20;2.70;;;;;;;24.96;39.03;94580.34;5016656;28;20058;-63
2023/10/09 11:56:16;;;;;;;11.52;2.20;;;;;;;24.96;39.85;94572.69;5028110;28;20048;-63
2023/10/09 11:58:43;;;;;;;14.80;2.30;;;;;;;24.85;38.77;94576.16;5028853;28;20033;-64
2023/10/09 12:01:20;;;;;;;15.63;2.50;;;;;;;24.72;39.40;94576.50;5029229;28;20425;-63
2023/10/09 12:03:49;;;;;;;14.23;2.55;;;;;;;24.92;39.08;94566.53;5030106;28;20539;-65
2023/10/09 12:06:29;;;;;;;13.80;2.67;;;;;;;24.48;39.70;94565.47;5029515;28;20110;-65
2023/10/09 12:08:58;;;;;;;14.13;2.00;;;;;;;24.60;39.86;94572.03;5030076;28;20072;-64
2023/10/09 12:11:31;;;;;;;13.65;2.30;;;;;;;24.95;40.03;94567.56;5029507;28;20060;-64
2023/10/09 12:14:00;;;;;;;16.53;2.30;;;;;;;24.70;41.12;94559.41;5029881;28;20041;-64
2023/10/09 12:16:32;;;;;;;14.38;2.60;;;;;;;24.52;41.00;94557.66;5028785;28;20768;-64
2023/10/09 12:19:02;;;;;;;14.43;2.55;;;;;;;24.28;41.26;94560.63;5029613;28;20034;-63
2023/10/09 12:21:29;;;;;;;10.73;2.40;;;;;;;24.80;41.02;94550.84;5028757;28;21844;-64
2023/10/09 12:23:57;;;;;;;14.48;2.20;;;;;;;24.41;40.94;94549.09;5027958;28;20456;-63
2023/10/09 12:26:27;;;;;;;13.10;2.30;;;;;;;24.88;40.80;94551.94;5028721;28;21814;-63
2023/10/09 12:28:54;;;;;;;14.32;2.33;;;;;;;24.88;41.79;94543.50;5029354;28;20110;-63
2023/10/09 12:31:21;;;;;;;18.38;3.00;;;;;;;25.07;41.39;94541.94;5028978;28;20056;-63
2023/10/09 12:33:49;;;;;;;15.93;2.67;;;;;;;25.07;41.07;94535.53;5029556;28;20048;-63
2023/10/09 12:36:22;;;;;;;13.20;2.88;;;;;;;24.63;41.39;94540.19;5028402;28;20042;-63
2023/10/09 12:38:53;;;;;;;15.30;2.77;;;;;;;24.67;41.76;94537.94;5029619;28;20487;-63
2023/10/09 12:41:27;;;;;;;18.55;2.50;;;;;;;23.61;43.77;94532.41;5029000;28;20175;-63
2023/10/09 12:43:57;;;;;;;16.38;2.90;;;;;;;23.91;43.48;94523.97;5029195;28;20060;-63
2023/10/09 12:46:25;;;;;;;15.50;2.63;;;;;;;23.71;45.14;94530.28;5028569;28;20037;-63
2023/10/09 12:48:54;;;;;;;13.35;2.72;;;;;;;23.34;45.20;94519.50;5029296;28;20609;-63
2023/10/09 12:51:29;;;;;;;11.57;2.23;;;;;;;24.29;44.29;94511.72;5028408;28;20068;-63
2023/10/09 12:53:57;;;;;;;15.63;2.60;;;;;;;24.27;44.25;94522.66;5028839;28;20045;-64
2023/10/09 12:56:43;;;;;;;13.90;2.72;;;;;;;24.61;43.60;94514.66;5028497;28;20041;-63
2023/10/09 12:59:14;;;;;;;17.83;2.80;;;;;;;25.07;42.65;94513.84;5028287;28;20041;-63
2023/10/09 13:01:44;;;;;;;16.40;3.10;;;;;;;24.59;43.64;94522.78;5028754;28;20548;-63
2023/10/09 13:04:15;;;;;;;15.50;3.30;;;;;;;24.95;42.94;94525.44;5027926;28;20049;-63
2023/10/09 13:06:46;;;;;;;21.17;3.67;;;;;;;24.03;44.82;94519.28;5027412;28;20033;-63
2023/10/09 13:09:15;;;;;;;14.48;2.88;;;;;;;23.92;45.08;94515.06;5028223;28;20449;-63
2023/10/09 13:11:43;;;;;;;15.00;2.53;;;;;;;23.70;46.06;94525.91;5028818;28;20410;-64
2023/10/09 13:14:16;;;;;;;15.68;2.72;;;;;;;24.15;45.71;94517.38;5028242;28;20111;-63
2023/10/09 13:16:45;;;;;;;17.67;2.93;;;;;;;23.53;47.98;94523.63;5026975;28;20046;-64
2023/10/09 13:19:12;;;;;;;12.23;3.05;;;;;;;23.42;48.56;94509.47;5010631;28;20049;-64
2023/10/09 13:21:40;;;;;;;13.70;3.10;;;;;;;23.41;48.27;94510.72;5028129;28;20045;-63
2023/10/09 13:24:13;;;;;;;15.48;2.72;;;;;;;23.73;47.35;94502.53;5027782;28;20061;-63
2023/10/09 13:26:51;;;;;;;13.85;2.85;;;;;;;23.97;47.00;94496.00;5028618;28;20048;-63
2023/10/09 13:29:24;;;;;;;16.43;2.70;;;;;;;24.01;47.25;94499.38;5028042;28;20052;-63
2023/10/09 13:31:58;;;;;;;12.73;2.70;;;;;;;23.72;49.11;94492.56;5028177;28;20052;-63
2023/10/09 13:34:28;;;;;;;17.85;3.58;;;;;;;23.26;57.30;94488.34;5027914;28;20044;-63
2023/10/09 13:36:58;;;;;;;16.95;3.63;;;;;;;23.27;64.13;94489.09;5028080;28;20053;-63
2023/10/09 13:39:26;;;;;;;17.95;3.55;;;;;;;22.92;72.84;94481.38;5026942;28;20426;-64
2023/10/09 13:41:57;;;;;;;15.23;3.70;;;;;;;22.63;78.53;94488.50;5028177;28;20482;-63
2023/10/09 13:44:29;;;;;;;14.95;3.63;;;;;;;22.79;80.04;94486.50;5027182;28;20600;-63
2023/10/09 13:46:57;;;;;;;15.23;3.60;;;;;;;23.00;79.94;94481.75;5032262;28;20045;-64
2023/10/09 13:49:34;;;;;;;14.68;3.33;;;;;;;23.04;80.53;94485.94;5034816;28;20042;-64
2023/10/09 13:52:02;;;;;;;13.75;4.13;;;;;;;23.33;78.26;94481.56;5034241;28;20038;-63
2023/10/09 13:57:04;;;;;;;16.35;3.55;;;;;;;23.40;78.81;94486.78;5035303;28;20054;-63
2023/10/09 13:59:34;;;;;;;14.32;3.88;;;;;;;23.51;79.37;94475.72;5033943;28;20290;-63
2023/10/09 14:02:02;;;;;;;14.45;3.30;;;;;;;23.43;79.97;94480.19;5034656;28;20480;-63
2023/10/09 14:04:30;;;;;;;16.63;3.40;;;;;;;23.39;80.58;94478.84;5034689;28;20120;-63
2023/10/09 14:06:56;;;;;;;17.07;3.60;;;;;;;23.56;79.38;94484.69;5034970;28;20395;-63
2023/10/09 14:10:29;;;;;;;12.65;3.38;;;;;;;23.61;79.52;94487.59;5034374;28;20401;-63
2023/10/09 14:12:29;;;;;;;16.70;3.70;;;;;;;23.50;79.33;94487.41;5021133;28;20045;-63
2023/10/09 14:14:56;;;;;;;15.02;3.63;;;;;;;23.10;82.47;94486.81;5034754;28;20055;-63
2023/10/09 14:17:23;;;;;;;12.90;3.80;;;;;;;23.17;83.70;94490.47;5034375;28;20045;-63
2023/10/09 14:19:52;;;;;;;16.23;3.33;;;;;;;23.83;79.37;94489.19;5034532;28;20048;-63
2023/10/09 14:22:29;;;;;;;16.45;3.92;;;;;;;23.97;77.83;94484.78;5033572;28;20049;-63
2023/10/09 14:24:56;;;;;;;17.42;4.03;;;;;;;23.50;79.67;94485.41;5034647;28;20401;-63
2023/10/09 14:27:35;;;;;;;14.68;3.42;;;;;;;23.90;75.92;94486.75;5034030;28;20037;-63
2023/10/09 14:30:12;;;;;;;12.27;3.97;;;;;;;24.17;75.32;94479.19;5033535;28;20120;-61
2023/10/09 14:32:51;;;;;;;14.73;3.27;;;;;;;23.88;76.63;94477.28;5034751;28;20091;-62